sensor_id;sensor_type;location;lat;lon;timestamp;temperature;humidity
210;DHT22;90;48.810;9.120;2022-10-31T00:00:16;14.00;86.50
210;DHT22;90;48.810;9.120;2022-10-31T00:02:43;14.00;86.60
210;DHT22;90;48.810;9.120;2022-10-31T00:05:10;14.00;86.70
210;DHT22;90;48.810;9.120;2022-10-31T00:07:37;14.00;86.50
210;DHT22;90;48.810;9.120;2022-10-31T00:10:05;14.00;86.60
210;DHT22;90;48.810;9.120;2022-10-31T00:12:32;14.00;86.70
210;DHT22;90;48.810;9.120;2022-10-31T00:15:00;14.00;86.60
210;DHT22;90;48.810;9.120;2022-10-31T00:17:27;14.00;86.50
210;DHT22;90;48.810;9.120;2022-10-31T00:19:54;14.00;86.50
210;DHT22;90;48.810;9.120;2022-10-31T00:22:22;14.00;86.20
210;DHT22;90;48.810;9.120;2022-10-31T00:24:49;13.90;86.80
210;DHT22;90;48.810;9.120;2022-10-31T00:27:18;13.90;86.70
210;DHT22;90;48.810;9.120;2022-10-31T00:29:44;13.90;86.80
210;DHT22;90;48.810;9.120;2022-10-31T00:32:13;13.90;86.80
210;DHT22;90;48.810;9.120;2022-10-31T00:34:40;13.90;86.80
210;DHT22;90;48.810;9.120;2022-10-31T00:37:07;13.90;86.90
210;DHT22;90;48.810;9.120;2022-10-31T00:39:34;13.90;86.80
210;DHT22;90;48.810;9.120;2022-10-31T00:42:01;13.80;87.20
210;DHT22;90;48.810;9.120;2022-10-31T00:44:28;13.80;87.20
210;DHT22;90;48.810;9.120;2022-10-31T00:46:55;13.80;87.40
210;DHT22;90;48.810;9.120;2022-10-31T00:49:23;13.70;87.90
210;DHT22;90;48.810;9.120;2022-10-31T00:51:50;13.70;87.60
210;DHT22;90;48.810;9.120;2022-10-31T00:54:17;13.70;87.60
210;DHT22;90;48.810;9.120;2022-10-31T00:56:44;13.80;87.40
210;DHT22;90;48.810;9.120;2022-10-31T00:59:11;13.80;87.40
210;DHT22;90;48.810;9.120;2022-10-31T01:01:38;13.80;87.20
210;DHT22;90;48.810;9.120;2022-10-31T01:04:05;13.70;87.50
210;DHT22;90;48.810;9.120;2022-10-31T01:06:33;13.70;87.10
210;DHT22;90;48.810;9.120;2022-10-31T01:09:00;13.90;87.00
210;DHT22;90;48.810;9.120;2022-10-31T01:11:27;13.80;87.10
210;DHT22;90;48.810;9.120;2022-10-31T01:13:54;13.80;86.90
210;DHT22;90;48.810;9.120;2022-10-31T01:16:23;13.80;86.70
210;DHT22;90;48.810;9.120;2022-10-31T01:18:51;13.80;86.90
210;DHT22;90;48.810;9.120;2022-10-31T01:21:19;13.70;87.20
210;DHT22;90;48.810;9.120;2022-10-31T01:23:48;13.70;87.50
210;DHT22;90;48.810;9.120;2022-10-31T01:26:17;13.60;87.60
210;DHT22;90;48.810;9.120;2022-10-31T01:28:46;13.60;87.60
210;DHT22;90;48.810;9.120;2022-10-31T01:31:14;13.70;87.40
210;DHT22;90;48.810;9.120;2022-10-31T01:33:42;13.70;87.30
210;DHT22;90;48.810;9.120;2022-10-31T01:36:16;13.70;87.30
210;DHT22;90;48.810;9.120;2022-10-31T01:38:44;13.60;87.70
210;DHT22;90;48.810;9.120;2022-10-31T01:41:14;13.60;87.40
210;DHT22;90;48.810;9.120;2022-10-31T01:43:47;13.70;87.20
210;DHT22;90;48.810;9.120;2022-10-31T01:46:16;13.60;87.60
210;DHT22;90;48.810;9.120;2022-10-31T01:48:44;13.60;87.80
210;DHT22;90;48.810;9.120;2022-10-31T01:51:12;13.70;87.30
210;DHT22;90;48.810;9.120;2022-10-31T01:53:42;13.70;87.10
210;DHT22;90;48.810;9.120;2022-10-31T01:56:12;13.60;87.50
210;DHT22;90;48.810;9.120;2022-10-31T01:58:40;13.60;87.50
210;DHT22;90;48.810;9.120;2022-10-31T02:01:07;13.50;87.90
210;DHT22;90;48.810;9.120;2022-10-31T02:03:34;13.50;87.70
210;DHT22;90;48.810;9.120;2022-10-31T02:06:03;13.50;87.70
210;DHT22;90;48.810;9.120;2022-10-31T02:08:34;13.40;87.90
210;DHT22;90;48.810;9.120;2022-10-31T02:11:01;13.40;88.00
210;DHT22;90;48.810;9.120;2022-10-31T02:13:30;13.30;88.40
210;DHT22;90;48.810;9.120;2022-10-31T02:15:59;13.30;88.80
210;DHT22;90;48.810;9.120;2022-10-31T02:18:29;13.30;88.40
210;DHT22;90;48.810;9.120;2022-10-31T02:21:06;13.30;88.40
210;DHT22;90;48.810;9.120;2022-10-31T02:24:14;13.30;88.40
210;DHT22;90;48.810;9.120;2022-10-31T02:27:11;13.50;88.20
210;DHT22;90;48.810;9.120;2022-10-31T02:32:50;13.40;87.20
210;DHT22;90;48.810;9.120;2022-10-31T02:35:28;13.30;87.20
210;DHT22;90;48.810;9.120;2022-10-31T02:38:01;13.40;86.40
210;DHT22;90;48.810;9.120;2022-10-31T02:40:34;13.30;86.60
210;DHT22;90;48.810;9.120;2022-10-31T02:43:06;13.30;86.40
210;DHT22;90;48.810;9.120;2022-10-31T02:45:41;13.30;86.40
210;DHT22;90;48.810;9.120;2022-10-31T02:48:13;13.30;86.40
210;DHT22;90;48.810;9.120;2022-10-31T02:50:45;13.20;86.70
210;DHT22;90;48.810;9.120;2022-10-31T02:53:14;13.10;86.40
210;DHT22;90;48.810;9.120;2022-10-31T02:55:56;13.10;86.80
210;DHT22;90;48.810;9.120;2022-10-31T02:58:26;13.00;87.20
210;DHT22;90;48.810;9.120;2022-10-31T03:03:57;13.00;87.00
210;DHT22;90;48.810;9.120;2022-10-31T03:06:30;12.90;87.60
210;DHT22;90;48.810;9.120;2022-10-31T03:09:04;12.90;87.80
210;DHT22;90;48.810;9.120;2022-10-31T03:11:45;12.90;88.00
210;DHT22;90;48.810;9.120;2022-10-31T03:14:19;12.80;88.40
210;DHT22;90;48.810;9.120;2022-10-31T03:16:49;12.90;88.60
210;DHT22;90;48.810;9.120;2022-10-31T03:19:21;12.90;88.30
210;DHT22;90;48.810;9.120;2022-10-31T03:21:53;12.80;88.50
210;DHT22;90;48.810;9.120;2022-10-31T03:24:26;12.80;88.50
210;DHT22;90;48.810;9.120;2022-10-31T03:26:55;12.80;88.60
210;DHT22;90;48.810;9.120;2022-10-31T03:29:26;12.80;88.50
210;DHT22;90;48.810;9.120;2022-10-31T03:31:57;12.80;88.50
210;DHT22;90;48.810;9.120;2022-10-31T03:34:27;12.80;88.20
210;DHT22;90;48.810;9.120;2022-10-31T03:36:57;12.80;88.10
210;DHT22;90;48.810;9.120;2022-10-31T03:39:24;12.70;88.30
210;DHT22;90;48.810;9.120;2022-10-31T03:41:56;12.70;88.40
210;DHT22;90;48.810;9.120;2022-10-31T03:44:24;12.70;88.20
210;DHT22;90;48.810;9.120;2022-10-31T03:46:53;12.70;88.40
210;DHT22;90;48.810;9.120;2022-10-31T03:49:21;12.70;88.20
210;DHT22;90;48.810;9.120;2022-10-31T03:51:54;12.70;88.20
210;DHT22;90;48.810;9.120;2022-10-31T03:54:27;12.70;88.20
210;DHT22;90;48.810;9.120;2022-10-31T03:57:00;12.60;88.30
210;DHT22;90;48.810;9.120;2022-10-31T03:59:32;12.70;88.30
210;DHT22;90;48.810;9.120;2022-10-31T04:02:03;12.80;88.20
210;DHT22;90;48.810;9.120;2022-10-31T04:04:33;12.80;88.10
210;DHT22;90;48.810;9.120;2022-10-31T04:07:03;12.80;87.80
210;DHT22;90;48.810;9.120;2022-10-31T04:09:35;12.70;87.70
210;DHT22;90;48.810;9.120;2022-10-31T04:12:06;12.70;87.90
210;DHT22;90;48.810;9.120;2022-10-31T04:14:38;12.70;88.00
210;DHT22;90;48.810;9.120;2022-10-31T04:17:10;12.60;88.50
210;DHT22;90;48.810;9.120;2022-10-31T04:19:38;12.50;88.90
210;DHT22;90;48.810;9.120;2022-10-31T04:22:07;12.50;89.30
210;DHT22;90;48.810;9.120;2022-10-31T04:24:34;12.60;88.90
210;DHT22;90;48.810;9.120;2022-10-31T04:27:02;12.50;88.90
210;DHT22;90;48.810;9.120;2022-10-31T04:29:29;12.50;89.30
210;DHT22;90;48.810;9.120;2022-10-31T04:31:56;12.50;89.50
210;DHT22;90;48.810;9.120;2022-10-31T04:34:23;12.40;89.00
210;DHT22;90;48.810;9.120;2022-10-31T04:36:50;12.50;89.20
210;DHT22;90;48.810;9.120;2022-10-31T04:39:18;12.50;89.20
210;DHT22;90;48.810;9.120;2022-10-31T04:41:45;12.50;88.90
210;DHT22;90;48.810;9.120;2022-10-31T04:44:12;12.50;88.50
210;DHT22;90;48.810;9.120;2022-10-31T04:46:39;12.50;88.50
210;DHT22;90;48.810;9.120;2022-10-31T04:49:06;12.50;88.30
210;DHT22;90;48.810;9.120;2022-10-31T04:51:33;12.40;88.50
210;DHT22;90;48.810;9.120;2022-10-31T04:54:00;12.40;88.90
210;DHT22;90;48.810;9.120;2022-10-31T04:56:28;12.30;89.30
210;DHT22;90;48.810;9.120;2022-10-31T04:58:55;12.40;89.40
210;DHT22;90;48.810;9.120;2022-10-31T05:01:22;12.40;88.90
210;DHT22;90;48.810;9.120;2022-10-31T05:03:49;12.30;88.90
210;DHT22;90;48.810;9.120;2022-10-31T05:06:16;12.30;89.20
210;DHT22;90;48.810;9.120;2022-10-31T05:08:43;12.20;89.30
210;DHT22;90;48.810;9.120;2022-10-31T05:11:10;12.30;89.50
210;DHT22;90;48.810;9.120;2022-10-31T05:13:39;12.20;89.30
210;DHT22;90;48.810;9.120;2022-10-31T05:16:06;12.20;89.60
210;DHT22;90;48.810;9.120;2022-10-31T05:18:33;12.30;89.20
210;DHT22;90;48.810;9.120;2022-10-31T05:21:00;12.30;89.10
210;DHT22;90;48.810;9.120;2022-10-31T05:23:27;12.30;89.00
210;DHT22;90;48.810;9.120;2022-10-31T05:25:54;12.30;88.40
210;DHT22;90;48.810;9.120;2022-10-31T05:28:21;12.30;88.60
210;DHT22;90;48.810;9.120;2022-10-31T05:30:50;12.30;88.70
210;DHT22;90;48.810;9.120;2022-10-31T05:33:16;12.30;88.30
210;DHT22;90;48.810;9.120;2022-10-31T05:35:43;12.30;88.60
210;DHT22;90;48.810;9.120;2022-10-31T05:38:10;12.20;88.90
210;DHT22;90;48.810;9.120;2022-10-31T05:40:37;12.20;89.20
210;DHT22;90;48.810;9.120;2022-10-31T05:43:04;12.20;88.90
210;DHT22;90;48.810;9.120;2022-10-31T05:45:31;12.20;88.90
210;DHT22;90;48.810;9.120;2022-10-31T05:48:00;12.20;88.80
210;DHT22;90;48.810;9.120;2022-10-31T05:50:29;12.10;88.50
210;DHT22;90;48.810;9.120;2022-10-31T05:52:57;12.00;89.00
210;DHT22;90;48.810;9.120;2022-10-31T05:55:25;12.00;89.30
210;DHT22;90;48.810;9.120;2022-10-31T05:57:52;12.00;89.20
210;DHT22;90;48.810;9.120;2022-10-31T06:00:20;12.10;89.00
210;DHT22;90;48.810;9.120;2022-10-31T06:02:47;12.00;88.90
210;DHT22;90;48.810;9.120;2022-10-31T06:05:16;12.00;89.30
210;DHT22;90;48.810;9.120;2022-10-31T06:07:43;11.90;89.60
210;DHT22;90;48.810;9.120;2022-10-31T06:10:10;11.90;90.00
210;DHT22;90;48.810;9.120;2022-10-31T06:12:37;12.00;89.80
210;DHT22;90;48.810;9.120;2022-10-31T06:15:07;12.10;89.50
210;DHT22;90;48.810;9.120;2022-10-31T06:17:35;12.10;89.30
210;DHT22;90;48.810;9.120;2022-10-31T06:20:02;12.00;89.30
210;DHT22;90;48.810;9.120;2022-10-31T06:22:31;11.90;89.30
210;DHT22;90;48.810;9.120;2022-10-31T06:24:58;12.00;89.10
210;DHT22;90;48.810;9.120;2022-10-31T06:27:25;12.00;89.00
210;DHT22;90;48.810;9.120;2022-10-31T06:29:52;12.10;88.60
210;DHT22;90;48.810;9.120;2022-10-31T06:32:19;12.10;88.80
210;DHT22;90;48.810;9.120;2022-10-31T06:34:46;12.10;89.40
210;DHT22;90;48.810;9.120;2022-10-31T06:37:14;12.10;89.00
210;DHT22;90;48.810;9.120;2022-10-31T06:39:42;12.00;89.30
210;DHT22;90;48.810;9.120;2022-10-31T06:42:10;12.10;89.40
210;DHT22;90;48.810;9.120;2022-10-31T06:44:37;12.10;89.20
210;DHT22;90;48.810;9.120;2022-10-31T06:47:05;12.30;88.60
210;DHT22;90;48.810;9.120;2022-10-31T06:49:33;12.30;88.30
210;DHT22;90;48.810;9.120;2022-10-31T06:51:59;12.20;88.70
210;DHT22;90;48.810;9.120;2022-10-31T06:54:27;12.10;89.00
210;DHT22;90;48.810;9.120;2022-10-31T06:56:55;12.00;89.60
210;DHT22;90;48.810;9.120;2022-10-31T06:59:22;12.10;89.70
210;DHT22;90;48.810;9.120;2022-10-31T07:01:51;12.10;89.50
210;DHT22;90;48.810;9.120;2022-10-31T07:04:18;12.10;89.90
210;DHT22;90;48.810;9.120;2022-10-31T07:06:44;12.10;90.20
210;DHT22;90;48.810;9.120;2022-10-31T07:09:12;12.20;90.20
210;DHT22;90;48.810;9.120;2022-10-31T07:11:39;12.20;90.40
210;DHT22;90;48.810;9.120;2022-10-31T07:14:07;12.40;89.80
210;DHT22;90;48.810;9.120;2022-10-31T07:16:34;12.50;89.50
210;DHT22;90;48.810;9.120;2022-10-31T07:19:01;12.50;89.40
210;DHT22;90;48.810;9.120;2022-10-31T07:21:28;12.70;88.80
210;DHT22;90;48.810;9.120;2022-10-31T07:23:55;12.70;88.50
210;DHT22;90;48.810;9.120;2022-10-31T07:26:22;12.80;88.30
210;DHT22;90;48.810;9.120;2022-10-31T07:28:49;12.70;88.70
210;DHT22;90;48.810;9.120;2022-10-31T07:31:17;12.80;88.90
210;DHT22;90;48.810;9.120;2022-10-31T07:33:44;12.90;88.60
210;DHT22;90;48.810;9.120;2022-10-31T07:36:11;12.90;88.70
210;DHT22;90;48.810;9.120;2022-10-31T07:38:38;12.90;88.60
210;DHT22;90;48.810;9.120;2022-10-31T07:41:05;13.00;88.70
210;DHT22;90;48.810;9.120;2022-10-31T07:43:32;13.00;88.80
210;DHT22;90;48.810;9.120;2022-10-31T07:45:59;13.00;88.70
210;DHT22;90;48.810;9.120;2022-10-31T07:48:28;13.10;88.90
210;DHT22;90;48.810;9.120;2022-10-31T07:50:55;13.10;89.00
210;DHT22;90;48.810;9.120;2022-10-31T07:53:22;13.20;88.90
210;DHT22;90;48.810;9.120;2022-10-31T07:55:49;13.20;88.60
210;DHT22;90;48.810;9.120;2022-10-31T07:58:17;13.30;93.00
210;DHT22;90;48.810;9.120;2022-10-31T08:00:45;13.40;89.30
210;DHT22;90;48.810;9.120;2022-10-31T08:03:14;13.50;88.30
210;DHT22;90;48.810;9.120;2022-10-31T08:05:42;13.60;87.90
210;DHT22;90;48.810;9.120;2022-10-31T08:08:11;13.60;87.90
210;DHT22;90;48.810;9.120;2022-10-31T08:10:39;13.60;87.70
210;DHT22;90;48.810;9.120;2022-10-31T08:13:08;13.60;88.00
210;DHT22;90;48.810;9.120;2022-10-31T08:15:35;13.60;87.50
210;DHT22;90;48.810;9.120;2022-10-31T08:18:02;13.60;87.60
210;DHT22;90;48.810;9.120;2022-10-31T08:20:29;13.50;87.80
210;DHT22;90;48.810;9.120;2022-10-31T08:22:59;13.50;87.90
210;DHT22;90;48.810;9.120;2022-10-31T08:25:27;13.50;87.50
210;DHT22;90;48.810;9.120;2022-10-31T08:27:55;13.60;87.40
210;DHT22;90;48.810;9.120;2022-10-31T08:30:24;13.70;87.00
210;DHT22;90;48.810;9.120;2022-10-31T08:32:59;13.70;86.60
210;DHT22;90;48.810;9.120;2022-10-31T08:35:26;13.80;86.50
210;DHT22;90;48.810;9.120;2022-10-31T08:37:53;13.80;86.80
210;DHT22;90;48.810;9.120;2022-10-31T08:40:22;13.90;86.90
210;DHT22;90;48.810;9.120;2022-10-31T08:42:56;14.00;86.70
210;DHT22;90;48.810;9.120;2022-10-31T08:45:23;14.00;87.30
210;DHT22;90;48.810;9.120;2022-10-31T08:47:51;14.10;87.40
210;DHT22;90;48.810;9.120;2022-10-31T08:50:18;14.20;87.30
210;DHT22;90;48.810;9.120;2022-10-31T08:52:45;14.20;88.10
210;DHT22;90;48.810;9.120;2022-10-31T08:55:12;14.10;88.90
210;DHT22;90;48.810;9.120;2022-10-31T08:57:40;14.10;89.20
210;DHT22;90;48.810;9.120;2022-10-31T09:00:08;14.10;89.20
210;DHT22;90;48.810;9.120;2022-10-31T09:02:35;14.20;88.80
210;DHT22;90;48.810;9.120;2022-10-31T09:05:04;14.20;88.80
210;DHT22;90;48.810;9.120;2022-10-31T09:07:31;14.30;88.50
210;DHT22;90;48.810;9.120;2022-10-31T09:09:58;14.40;88.20
210;DHT22;90;48.810;9.120;2022-10-31T09:12:25;14.50;88.10
210;DHT22;90;48.810;9.120;2022-10-31T09:14:53;14.60;87.80
210;DHT22;90;48.810;9.120;2022-10-31T09:17:21;14.60;87.50
210;DHT22;90;48.810;9.120;2022-10-31T09:19:48;14.70;87.20
210;DHT22;90;48.810;9.120;2022-10-31T09:22:15;14.70;86.70
210;DHT22;90;48.810;9.120;2022-10-31T09:24:42;14.80;86.90
210;DHT22;90;48.810;9.120;2022-10-31T09:27:09;14.80;86.90
210;DHT22;90;48.810;9.120;2022-10-31T09:29:36;14.90;87.10
210;DHT22;90;48.810;9.120;2022-10-31T09:32:05;14.90;87.30
210;DHT22;90;48.810;9.120;2022-10-31T09:34:32;14.90;87.60
210;DHT22;90;48.810;9.120;2022-10-31T09:36:58;15.00;87.50
210;DHT22;90;48.810;9.120;2022-10-31T09:39:26;15.10;87.20
210;DHT22;90;48.810;9.120;2022-10-31T09:42:08;15.20;87.00
210;DHT22;90;48.810;9.120;2022-10-31T09:44:46;15.20;86.70
210;DHT22;90;48.810;9.120;2022-10-31T09:47:23;15.30;86.60
210;DHT22;90;48.810;9.120;2022-10-31T09:50:02;15.30;86.60
210;DHT22;90;48.810;9.120;2022-10-31T09:52:34;15.40;86.50
210;DHT22;90;48.810;9.120;2022-10-31T09:55:05;15.40;86.00
210;DHT22;90;48.810;9.120;2022-10-31T09:57:35;15.40;86.00
210;DHT22;90;48.810;9.120;2022-10-31T10:00:05;15.50;85.90
210;DHT22;90;48.810;9.120;2022-10-31T10:02:37;15.50;85.90
210;DHT22;90;48.810;9.120;2022-10-31T10:05:10;15.60;85.80
210;DHT22;90;48.810;9.120;2022-10-31T10:07:44;15.60;85.30
210;DHT22;90;48.810;9.120;2022-10-31T10:10:18;15.60;85.40
210;DHT22;90;48.810;9.120;2022-10-31T10:13:19;15.70;85.40
210;DHT22;90;48.810;9.120;2022-10-31T10:16:00;15.80;85.20
210;DHT22;90;48.810;9.120;2022-10-31T10:18:40;15.80;84.80
210;DHT22;90;48.810;9.120;2022-10-31T10:21:20;15.90;84.60
210;DHT22;90;48.810;9.120;2022-10-31T10:23:58;15.90;85.20
210;DHT22;90;48.810;9.120;2022-10-31T10:26:36;16.00;84.60
210;DHT22;90;48.810;9.120;2022-10-31T10:29:21;16.10;84.30
210;DHT22;90;48.810;9.120;2022-10-31T10:31:52;16.20;83.40
210;DHT22;90;48.810;9.120;2022-10-31T10:34:24;16.10;83.50
210;DHT22;90;48.810;9.120;2022-10-31T10:36:56;16.20;83.20
210;DHT22;90;48.810;9.120;2022-10-31T10:39:30;16.10;84.00
210;DHT22;90;48.810;9.120;2022-10-31T10:42:00;16.20;84.30
210;DHT22;90;48.810;9.120;2022-10-31T10:44:47;16.30;84.60
210;DHT22;90;48.810;9.120;2022-10-31T10:47:39;16.30;84.20
210;DHT22;90;48.810;9.120;2022-10-31T10:50:13;16.40;83.70
210;DHT22;90;48.810;9.120;2022-10-31T10:52:49;16.60;84.80
210;DHT22;90;48.810;9.120;2022-10-31T10:55:26;16.80;83.50
210;DHT22;90;48.810;9.120;2022-10-31T10:57:59;16.70;83.10
210;DHT22;90;48.810;9.120;2022-10-31T11:00:30;16.70;83.10
210;DHT22;90;48.810;9.120;2022-10-31T11:02:58;16.70;83.10
210;DHT22;90;48.810;9.120;2022-10-31T11:05:33;16.70;83.60
210;DHT22;90;48.810;9.120;2022-10-31T11:08:01;16.70;83.20
210;DHT22;90;48.810;9.120;2022-10-31T11:10:29;16.60;83.70
210;DHT22;90;48.810;9.120;2022-10-31T11:13:20;16.70;83.00
210;DHT22;90;48.810;9.120;2022-10-31T11:15:58;16.70;82.10
210;DHT22;90;48.810;9.120;2022-10-31T11:18:29;16.80;81.80
210;DHT22;90;48.810;9.120;2022-10-31T11:20:59;16.70;81.80
210;DHT22;90;48.810;9.120;2022-10-31T11:23:28;16.90;81.60
210;DHT22;90;48.810;9.120;2022-10-31T11:25:57;16.90;81.50
210;DHT22;90;48.810;9.120;2022-10-31T11:28:26;17.00;80.80
210;DHT22;90;48.810;9.120;2022-10-31T11:30:56;17.00;80.80
210;DHT22;90;48.810;9.120;2022-10-31T11:33:28;17.00;81.00
210;DHT22;90;48.810;9.120;2022-10-31T11:35:56;17.10;80.40
210;DHT22;90;48.810;9.120;2022-10-31T11:38:29;17.00;80.80
210;DHT22;90;48.810;9.120;2022-10-31T11:41:00;17.00;80.40
210;DHT22;90;48.810;9.120;2022-10-31T11:43:30;17.10;80.70
210;DHT22;90;48.810;9.120;2022-10-31T11:45:58;17.20;80.70
210;DHT22;90;48.810;9.120;2022-10-31T11:48:25;17.40;80.80
210;DHT22;90;48.810;9.120;2022-10-31T11:50:55;17.40;80.80
210;DHT22;90;48.810;9.120;2022-10-31T11:53:27;17.40;79.80
210;DHT22;90;48.810;9.120;2022-10-31T11:56:09;17.60;80.20
210;DHT22;90;48.810;9.120;2022-10-31T11:58:37;17.60;79.30
210;DHT22;90;48.810;9.120;2022-10-31T12:01:04;17.60;79.30
210;DHT22;90;48.810;9.120;2022-10-31T12:03:43;17.60;79.10
210;DHT22;90;48.810;9.120;2022-10-31T12:06:18;17.50;79.30
210;DHT22;90;48.810;9.120;2022-10-31T12:08:48;17.40;79.60
210;DHT22;90;48.810;9.120;2022-10-31T12:11:34;17.40;79.80
210;DHT22;90;48.810;9.120;2022-10-31T12:14:16;17.50;79.10
210;DHT22;90;48.810;9.120;2022-10-31T12:16:49;17.40;79.40
210;DHT22;90;48.810;9.120;2022-10-31T12:19:25;17.40;79.70
210;DHT22;90;48.810;9.120;2022-10-31T12:22:03;17.50;79.80
210;DHT22;90;48.810;9.120;2022-10-31T12:24:42;17.60;79.90
210;DHT22;90;48.810;9.120;2022-10-31T12:27:20;17.70;79.50
210;DHT22;90;48.810;9.120;2022-10-31T12:30:09;17.80;79.60
210;DHT22;90;48.810;9.120;2022-10-31T12:32:54;17.90;79.50
210;DHT22;90;48.810;9.120;2022-10-31T12:35:34;18.00;79.10
210;DHT22;90;48.810;9.120;2022-10-31T12:38:17;18.00;79.70
210;DHT22;90;48.810;9.120;2022-10-31T12:40:59;17.90;79.90
210;DHT22;90;48.810;9.120;2022-10-31T12:43:39;17.90;80.00
210;DHT22;90;48.810;9.120;2022-10-31T12:46:19;17.80;80.30
210;DHT22;90;48.810;9.120;2022-10-31T12:49:09;17.80;79.60
210;DHT22;90;48.810;9.120;2022-10-31T12:51:46;17.70;80.00
210;DHT22;90;48.810;9.120;2022-10-31T12:54:36;17.60;80.70
210;DHT22;90;48.810;9.120;2022-10-31T12:57:16;17.50;81.10
210;DHT22;90;48.810;9.120;2022-10-31T12:59:49;17.40;81.10
210;DHT22;90;48.810;9.120;2022-10-31T13:02:23;17.40;81.60
210;DHT22;90;48.810;9.120;2022-10-31T13:04:55;17.40;81.60
210;DHT22;90;48.810;9.120;2022-10-31T13:07:34;17.50;83.90
210;DHT22;90;48.810;9.120;2022-10-31T13:10:07;17.60;81.80
210;DHT22;90;48.810;9.120;2022-10-31T13:12:41;17.60;81.30
210;DHT22;90;48.810;9.120;2022-10-31T13:15:16;17.50;81.40
210;DHT22;90;48.810;9.120;2022-10-31T13:17:47;17.50;81.50
210;DHT22;90;48.810;9.120;2022-10-31T13:20:23;17.50;81.50
210;DHT22;90;48.810;9.120;2022-10-31T13:22:54;17.50;81.30
210;DHT22;90;48.810;9.120;2022-10-31T13:25:25;17.40;81.70
210;DHT22;90;48.810;9.120;2022-10-31T13:27:59;17.40;81.80
210;DHT22;90;48.810;9.120;2022-10-31T13:30:29;17.40;81.80
210;DHT22;90;48.810;9.120;2022-10-31T13:33:01;17.40;81.80
210;DHT22;90;48.810;9.120;2022-10-31T13:35:35;17.40;81.80
210;DHT22;90;48.810;9.120;2022-10-31T13:38:10;17.50;81.70
210;DHT22;90;48.810;9.120;2022-10-31T13:40:45;17.60;81.30
210;DHT22;90;48.810;9.120;2022-10-31T13:43:23;18.00;80.60
210;DHT22;90;48.810;9.120;2022-10-31T13:45:54;18.30;78.50
210;DHT22;90;48.810;9.120;2022-10-31T13:48:40;18.80;76.90
210;DHT22;90;48.810;9.120;2022-10-31T13:51:10;18.80;77.00
210;DHT22;90;48.810;9.120;2022-10-31T13:53:40;19.10;77.20
210;DHT22;90;48.810;9.120;2022-10-31T13:56:19;19.20;75.70
210;DHT22;90;48.810;9.120;2022-10-31T13:59:17;19.20;75.50
210;DHT22;90;48.810;9.120;2022-10-31T14:01:51;19.00;75.70
210;DHT22;90;48.810;9.120;2022-10-31T14:04:21;18.90;76.10
210;DHT22;90;48.810;9.120;2022-10-31T14:06:55;18.70;76.00
210;DHT22;90;48.810;9.120;2022-10-31T14:09:29;18.60;76.20
210;DHT22;90;48.810;9.120;2022-10-31T14:11:59;18.50;76.50
210;DHT22;90;48.810;9.120;2022-10-31T14:14:34;18.50;77.20
210;DHT22;90;48.810;9.120;2022-10-31T14:17:18;18.40;78.00
210;DHT22;90;48.810;9.120;2022-10-31T14:19:59;18.40;78.90
210;DHT22;90;48.810;9.120;2022-10-31T14:22:30;18.30;79.20
210;DHT22;90;48.810;9.120;2022-10-31T14:24:57;18.30;79.50
210;DHT22;90;48.810;9.120;2022-10-31T14:27:44;18.30;79.90
210;DHT22;90;48.810;9.120;2022-10-31T14:30:18;18.30;80.10
210;DHT22;90;48.810;9.120;2022-10-31T14:32:51;18.30;80.50
210;DHT22;90;48.810;9.120;2022-10-31T14:35:20;18.20;80.70
210;DHT22;90;48.810;9.120;2022-10-31T14:40:58;18.10;81.10
210;DHT22;90;48.810;9.120;2022-10-31T14:43:45;18.10;81.30
210;DHT22;90;48.810;9.120;2022-10-31T14:46:30;18.10;81.30
210;DHT22;90;48.810;9.120;2022-10-31T14:49:19;18.20;81.60
210;DHT22;90;48.810;9.120;2022-10-31T14:51:50;18.20;81.10
210;DHT22;90;48.810;9.120;2022-10-31T14:54:22;18.20;80.70
210;DHT22;90;48.810;9.120;2022-10-31T14:56:53;18.20;80.60
210;DHT22;90;48.810;9.120;2022-10-31T14:59:26;18.20;80.80
210;DHT22;90;48.810;9.120;2022-10-31T15:01:57;18.20;81.20
210;DHT22;90;48.810;9.120;2022-10-31T15:04:27;18.10;81.90
210;DHT22;90;48.810;9.120;2022-10-31T15:07:02;18.10;82.20
210;DHT22;90;48.810;9.120;2022-10-31T15:09:33;18.00;82.50
210;DHT22;90;48.810;9.120;2022-10-31T15:12:01;18.00;82.80
210;DHT22;90;48.810;9.120;2022-10-31T15:14:43;17.90;83.60
210;DHT22;90;48.810;9.120;2022-10-31T15:17:12;17.80;84.50
210;DHT22;90;48.810;9.120;2022-10-31T15:19:39;17.80;84.60
210;DHT22;90;48.810;9.120;2022-10-31T15:22:10;17.80;84.50
210;DHT22;90;48.810;9.120;2022-10-31T15:24:41;17.70;84.60
210;DHT22;90;48.810;9.120;2022-10-31T15:27:11;17.60;84.20
210;DHT22;90;48.810;9.120;2022-10-31T15:29:48;17.50;83.40
210;DHT22;90;48.810;9.120;2022-10-31T15:32:22;17.60;83.10
210;DHT22;90;48.810;9.120;2022-10-31T15:34:50;17.50;82.70
210;DHT22;90;48.810;9.120;2022-10-31T15:37:18;17.40;82.80
210;DHT22;90;48.810;9.120;2022-10-31T15:39:48;17.40;83.20
210;DHT22;90;48.810;9.120;2022-10-31T15:42:20;17.30;83.70
210;DHT22;90;48.810;9.120;2022-10-31T15:44:49;17.20;84.50
210;DHT22;90;48.810;9.120;2022-10-31T15:47:20;17.20;84.70
210;DHT22;90;48.810;9.120;2022-10-31T15:49:49;17.00;85.60
210;DHT22;90;48.810;9.120;2022-10-31T15:52:22;16.90;86.50
210;DHT22;90;48.810;9.120;2022-10-31T15:54:53;16.80;87.00
210;DHT22;90;48.810;9.120;2022-10-31T15:57:22;16.80;87.30
210;DHT22;90;48.810;9.120;2022-10-31T15:59:49;16.70;87.80
210;DHT22;90;48.810;9.120;2022-10-31T16:02:22;16.70;87.80
210;DHT22;90;48.810;9.120;2022-10-31T16:04:52;16.60;87.90
210;DHT22;90;48.810;9.120;2022-10-31T16:07:21;16.50;88.00
210;DHT22;90;48.810;9.120;2022-10-31T16:09:55;16.50;88.10
210;DHT22;90;48.810;9.120;2022-10-31T16:12:24;16.50;88.10
210;DHT22;90;48.810;9.120;2022-10-31T16:14:53;16.40;88.50
210;DHT22;90;48.810;9.120;2022-10-31T16:17:24;16.30;88.90
210;DHT22;90;48.810;9.120;2022-10-31T16:19:56;16.30;89.00
210;DHT22;90;48.810;9.120;2022-10-31T16:22:26;16.20;89.00
210;DHT22;90;48.810;9.120;2022-10-31T16:25:01;16.10;89.20
210;DHT22;90;48.810;9.120;2022-10-31T16:27:33;16.00;89.50
210;DHT22;90;48.810;9.120;2022-10-31T16:32:55;16.00;89.60
210;DHT22;90;48.810;9.120;2022-10-31T16:35:26;15.90;89.50
210;DHT22;90;48.810;9.120;2022-10-31T16:37:53;15.90;89.40
210;DHT22;90;48.810;9.120;2022-10-31T16:40:20;15.80;89.60
210;DHT22;90;48.810;9.120;2022-10-31T16:42:48;15.90;89.40
210;DHT22;90;48.810;9.120;2022-10-31T16:45:17;15.80;89.20
210;DHT22;90;48.810;9.120;2022-10-31T16:47:45;15.70;89.30
210;DHT22;90;48.810;9.120;2022-10-31T16:50:16;15.70;89.20
210;DHT22;90;48.810;9.120;2022-10-31T16:52:43;15.60;89.50
210;DHT22;90;48.810;9.120;2022-10-31T16:55:13;15.50;89.70
210;DHT22;90;48.810;9.120;2022-10-31T16:57:42;15.40;89.90
210;DHT22;90;48.810;9.120;2022-10-31T17:00:15;15.40;89.90
210;DHT22;90;48.810;9.120;2022-10-31T17:02:43;15.40;89.90
210;DHT22;90;48.810;9.120;2022-10-31T17:05:14;15.50;89.60
210;DHT22;90;48.810;9.120;2022-10-31T17:07:43;15.40;89.80
210;DHT22;90;48.810;9.120;2022-10-31T17:10:11;15.40;89.90
210;DHT22;90;48.810;9.120;2022-10-31T17:12:41;15.50;89.20
210;DHT22;90;48.810;9.120;2022-10-31T17:15:15;15.70;86.30
210;DHT22;90;48.810;9.120;2022-10-31T17:17:43;15.70;86.50
210;DHT22;90;48.810;9.120;2022-10-31T17:20:21;15.70;86.60
210;DHT22;90;48.810;9.120;2022-10-31T17:22:49;15.70;87.60
210;DHT22;90;48.810;9.120;2022-10-31T17:25:18;15.50;89.10
210;DHT22;90;48.810;9.120;2022-10-31T17:27:46;15.60;88.60